createdAt,value
2019-04-13T00:00:36.778Z,23.00
2019-04-13T00:01:36.673Z,24.00
2019-04-13T00:02:36.566Z,23.30
2019-04-13T00:03:36.467Z,23.80
2019-04-13T00:04:36.379Z,23.60
2019-04-13T00:05:36.260Z,24.30
2019-04-13T00:06:36.159Z,24.00
2019-04-13T00:07:36.056Z,24.90
2019-04-13T00:08:35.955Z,23.90
2019-04-13T00:09:35.867Z,22.60
2019-04-13T00:10:35.750Z,23.00
2019-04-13T00:11:35.647Z,21.60
2019-04-13T00:12:35.545Z,20.90
2019-04-13T00:13:35.442Z,20.50
2019-04-13T00:14:35.357Z,19.60
2019-04-13T00:15:35.235Z,20.00
2019-04-13T00:16:35.133Z,19.70
2019-04-13T00:17:35.049Z,20.00
2019-04-13T00:18:34.930Z,20.10
2019-04-13T00:19:35.259Z,20.90
2019-04-13T00:20:34.728Z,20.70
2019-04-13T00:21:34.619Z,20.20
2019-04-13T00:22:34.520Z,19.90
2019-04-13T00:23:34.417Z,21.10
2019-04-13T00:24:34.330Z,21.20
2019-04-13T00:25:34.212Z,22.00
2019-04-13T00:26:34.111Z,21.20
2019-04-13T00:27:34.011Z,22.00
2019-04-13T00:28:33.907Z,22.20
2019-04-13T00:29:33.819Z,22.50
2019-04-13T00:30:33.698Z,22.30
2019-04-13T00:31:33.605Z,23.30
2019-04-13T00:32:33.494Z,21.80
2019-04-13T00:33:33.391Z,23.00
2019-04-13T00:34:41.383Z,22.90
2019-04-13T00:35:33.189Z,22.60
2019-04-13T00:36:33.085Z,23.90
2019-04-13T00:37:32.981Z,24.70
2019-04-13T00:38:32.880Z,23.90
2019-04-13T00:39:32.796Z,24.80
2019-04-13T00:40:32.679Z,26.50
2019-04-13T00:41:32.575Z,26.00
2019-04-13T00:42:32.472Z,26.70
2019-04-13T00:43:32.369Z,26.40
2019-04-13T00:44:32.283Z,27.00
2019-04-13T00:45:32.166Z,26.70
2019-04-13T00:46:32.064Z,28.20
2019-04-13T00:47:31.959Z,26.70
2019-04-13T00:48:31.856Z,26.80
2019-04-13T00:49:31.770Z,27.10
2019-04-13T00:50:31.651Z,27.60
2019-04-13T00:51:31.550Z,27.80
2019-04-13T00:52:31.450Z,27.90
2019-04-13T00:53:31.344Z,28.20
2019-04-13T00:54:31.263Z,27.60
2019-04-13T00:55:31.140Z,28.00
2019-04-13T00:56:31.039Z,27.60
2019-04-13T00:57:30.933Z,28.20
2019-04-13T00:58:30.833Z,28.40
2019-04-13T00:59:30.746Z,28.20
2019-04-13T01:00:30.626Z,28.20
2019-04-13T01:01:30.523Z,29.10
2019-04-13T01:02:30.430Z,28.40
2019-04-13T01:03:30.317Z,29.10
2019-04-13T01:04:30.233Z,28.60
2019-04-13T01:05:30.113Z,31.10
2019-04-13T01:06:30.010Z,29.70
2019-04-13T01:07:29.906Z,28.60
2019-04-13T01:08:29.807Z,28.60
2019-04-13T01:09:29.718Z,28.60
2019-04-13T01:10:29.599Z,29.10
2019-04-13T01:11:29.495Z,29.10
2019-04-13T01:12:29.394Z,29.30
2019-04-13T01:13:29.288Z,30.10
2019-04-13T01:14:29.205Z,29.80
2019-04-13T01:15:29.084Z,30.20
2019-04-13T01:16:28.983Z,29.40
2019-04-13T01:17:28.880Z,29.90
2019-04-13T01:18:28.774Z,31.00
2019-04-13T01:19:28.691Z,29.60
2019-04-13T01:20:28.572Z,31.20
2019-04-13T01:21:28.465Z,31.00
2019-04-13T01:22:28.362Z,31.00
2019-04-13T01:23:28.260Z,30.00
2019-04-13T01:24:28.159Z,29.20
2019-04-13T01:25:28.070Z,29.30
2019-04-13T01:26:27.955Z,29.70
2019-04-13T01:27:27.850Z,30.90
2019-04-13T01:28:27.748Z,28.20
2019-04-13T01:29:27.645Z,29.10
2019-04-13T01:30:27.562Z,29.90
2019-04-13T01:31:27.438Z,30.00
2019-04-13T01:32:27.334Z,30.10
2019-04-13T01:33:27.336Z,29.60
2019-04-13T01:34:27.132Z,29.70
2019-04-13T01:35:27.042Z,30.00
2019-04-13T01:36:26.924Z,31.40
2019-04-13T01:37:26.820Z,31.60
2019-04-13T01:38:26.728Z,29.60
2019-04-13T01:39:26.615Z,30.70
2019-04-13T01:40:26.630Z,30.70
2019-04-13T01:41:26.406Z,28.50
2019-04-13T01:42:26.307Z,28.20
2019-04-13T01:43:26.205Z,28.30
2019-04-13T01:44:26.102Z,29.40
2019-04-13T01:45:26.010Z,27.50
2019-04-13T01:46:25.894Z,27.50
2019-04-13T01:47:25.894Z,28.30
2019-04-13T01:48:25.686Z,27.10
2019-04-13T01:49:25.583Z,28.80
2019-04-13T01:50:25.496Z,29.40
2019-04-13T01:51:25.379Z,28.40
2019-04-13T01:52:25.274Z,28.40
2019-04-13T01:53:25.170Z,28.10
2019-04-13T01:54:25.175Z,28.90
2019-04-13T01:55:24.983Z,28.10
2019-04-13T01:56:24.863Z,28.50
2019-04-13T01:57:24.760Z,28.60
2019-04-13T01:58:24.658Z,28.30
2019-04-13T01:59:24.552Z,27.80
2019-04-13T02:00:24.468Z,30.30
2019-04-13T02:01:24.449Z,29.40
2019-04-13T02:02:24.243Z,27.40
2019-04-13T02:03:24.141Z,28.80
2019-04-13T02:04:24.041Z,28.60
2019-04-13T02:05:23.951Z,28.80
2019-04-13T02:06:23.834Z,28.40
2019-04-13T02:07:23.730Z,28.00
2019-04-13T02:08:23.734Z,29.40
2019-04-13T02:09:23.524Z,28.00
2019-04-13T02:10:23.435Z,26.60
2019-04-13T02:11:23.316Z,28.20
2019-04-13T02:12:23.214Z,29.10
2019-04-13T02:13:23.110Z,28.60
2019-04-13T02:14:23.006Z,28.70
2019-04-13T02:15:23.027Z,28.40
2019-04-13T02:16:22.802Z,27.10
2019-04-13T02:17:22.703Z,28.00
2019-04-13T02:18:22.594Z,30.10
2019-04-13T02:19:22.491Z,28.60
2019-04-13T02:20:22.404Z,28.10
2019-04-13T02:21:22.287Z,28.70
2019-04-13T02:22:22.289Z,28.60
2019-04-13T02:23:22.083Z,29.20
2019-04-13T02:24:21.980Z,31.20
2019-04-13T02:25:21.892Z,32.60
2019-04-13T02:26:21.771Z,32.40
2019-04-13T02:27:22.180Z,30.80
2019-04-13T02:28:21.570Z,32.00
2019-04-13T02:29:21.462Z,31.30
2019-04-13T02:30:21.386Z,30.20
2019-04-13T02:31:21.263Z,27.10
2019-04-13T02:32:21.155Z,27.70
2019-04-13T02:33:21.917Z,29.10
2019-04-13T02:34:20.949Z,28.10
2019-04-13T02:35:34.665Z,27.80
2019-04-13T02:36:20.869Z,27.60
2019-04-13T02:37:20.643Z,26.80
2019-04-13T02:38:20.537Z,27.10
2019-04-13T02:39:20.435Z,26.80
2019-04-13T02:40:20.350Z,27.40
2019-04-13T02:41:20.230Z,27.20
2019-04-13T02:42:20.125Z,27.60
2019-04-13T02:43:20.023Z,28.70
2019-04-13T02:44:19.937Z,26.60
2019-04-13T02:45:19.835Z,27.10
2019-04-13T02:46:19.713Z,27.50
2019-04-13T02:47:19.612Z,27.50
2019-04-13T02:48:19.506Z,27.70
2019-04-13T02:49:19.408Z,27.50
2019-04-13T02:50:19.343Z,27.10
2019-04-13T02:51:19.201Z,27.80
2019-04-13T02:52:19.099Z,26.80
2019-04-13T02:53:18.995Z,27.30
2019-04-13T02:54:18.894Z,27.90
2019-04-13T02:55:18.804Z,28.30
2019-04-13T02:56:18.686Z,27.70
2019-04-13T02:57:18.587Z,27.40
2019-04-13T02:58:18.487Z,27.50
2019-04-13T02:59:18.380Z,27.30
2019-04-13T03:00:18.295Z,26.60
2019-04-13T03:01:18.174Z,26.30
2019-04-13T03:02:18.070Z,25.70
2019-04-13T03:03:17.968Z,26.10
2019-04-13T03:04:17.868Z,26.20
2019-04-13T03:05:17.777Z,26.10
2019-04-13T03:06:17.664Z,26.20
2019-04-13T03:07:17.558Z,24.40
2019-04-13T03:08:17.455Z,26.00
2019-04-13T03:09:17.351Z,26.40
2019-04-13T03:10:17.251Z,26.30
2019-04-13T03:11:17.163Z,27.20
2019-04-13T03:12:17.046Z,28.10
2019-04-13T03:13:16.939Z,27.10
2019-04-13T03:14:16.837Z,28.20
2019-04-13T03:15:16.737Z,26.90
2019-04-13T03:16:16.650Z,27.60
2019-04-13T03:17:16.530Z,26.60
2019-04-13T03:18:16.428Z,27.30
2019-04-13T03:19:16.325Z,27.20
2019-04-13T03:20:16.224Z,25.90
2019-04-13T03:21:16.137Z,25.60
2019-04-13T03:22:16.016Z,26.10
2019-04-13T03:23:15.913Z,26.30
2019-04-13T03:24:15.811Z,25.20
2019-04-13T03:25:15.713Z,26.20
2019-04-13T03:26:15.623Z,25.60
2019-04-13T03:27:15.505Z,26.00
2019-04-13T03:28:15.401Z,26.10
2019-04-13T03:29:15.296Z,25.80
2019-04-13T03:30:15.198Z,25.60
2019-04-13T03:31:15.112Z,26.30
2019-04-13T03:32:14.993Z,25.60
2019-04-13T03:33:14.890Z,25.60
2019-04-13T03:34:14.789Z,25.20
2019-04-13T03:35:14.682Z,26.10
2019-04-13T03:36:14.596Z,25.50
2019-04-13T03:37:14.478Z,26.60
2019-04-13T03:38:14.373Z,26.00
2019-04-13T03:39:14.272Z,26.30
2019-04-13T03:40:14.170Z,25.50
2019-04-13T03:41:14.080Z,25.60
2019-04-13T03:42:13.968Z,26.30
2019-04-13T03:43:13.860Z,25.30
2019-04-13T03:44:13.762Z,26.10
2019-04-13T03:45:13.655Z,25.80
2019-04-13T03:46:13.567Z,26.60
2019-04-13T03:47:13.450Z,25.50
2019-04-13T03:48:13.347Z,26.10
2019-04-13T03:49:13.251Z,26.40
2019-04-13T03:50:13.141Z,25.90
2019-04-13T03:51:13.057Z,26.10
2019-04-13T03:52:12.937Z,26.80
2019-04-13T03:53:12.833Z,27.00
2019-04-13T03:54:12.730Z,27.10
2019-04-13T03:55:12.625Z,27.00
2019-04-13T03:56:12.553Z,26.60
2019-04-13T03:57:12.421Z,27.00
2019-04-13T03:58:12.317Z,27.40
2019-04-13T03:59:12.215Z,27.40
2019-04-13T04:00:12.116Z,27.20
2019-04-13T04:01:12.025Z,28.50
2019-04-13T04:02:11.906Z,28.50
2019-04-13T04:03:11.807Z,28.80
2019-04-13T04:04:11.704Z,27.70
2019-04-13T04:05:11.596Z,27.40
2019-04-13T04:06:12.203Z,27.30
2019-04-13T04:07:11.392Z,27.10
2019-04-13T04:08:11.289Z,27.50
2019-04-13T04:09:11.205Z,27.00
2019-04-13T04:10:11.092Z,27.20
2019-04-13T04:11:11.001Z,27.40
2019-04-13T04:12:10.877Z,27.50
2019-04-13T04:13:10.773Z,27.40
2019-04-13T04:14:10.672Z,27.10
2019-04-13T04:15:10.572Z,27.20
2019-04-13T04:16:10.480Z,26.90
2019-04-13T04:17:10.360Z,27.10
2019-04-13T04:18:10.275Z,27.70
2019-04-13T04:19:10.159Z,28.20
2019-04-13T04:20:10.163Z,27.60
2019-04-13T04:21:09.968Z,27.60
2019-04-13T04:22:09.847Z,27.70
2019-04-13T04:23:09.744Z,28.00
2019-04-13T04:24:09.648Z,28.00
2019-04-13T04:25:09.541Z,27.50
2019-04-13T04:26:09.453Z,27.60
2019-04-13T04:27:09.451Z,28.40
2019-04-13T04:28:09.232Z,26.90
2019-04-13T04:29:09.128Z,27.50
2019-04-13T04:30:09.024Z,27.20
2019-04-13T04:31:08.939Z,27.40
2019-04-13T04:32:08.827Z,27.90
2019-04-13T04:33:08.714Z,27.50
2019-04-13T04:34:08.714Z,27.10
2019-04-13T04:35:08.509Z,26.90
2019-04-13T04:36:08.425Z,27.80
2019-04-13T04:37:08.303Z,26.60
2019-04-13T04:38:08.202Z,27.30
2019-04-13T04:39:08.099Z,27.00
2019-04-13T04:40:07.998Z,27.30
2019-04-13T04:41:08.015Z,27.40
2019-04-13T04:42:07.790Z,26.80
2019-04-13T04:43:07.688Z,27.70
2019-04-13T04:44:07.583Z,26.60
2019-04-13T04:45:07.480Z,26.40
2019-04-13T04:46:07.422Z,26.90
2019-04-13T04:47:07.278Z,26.90
2019-04-13T04:48:07.275Z,26.40
2019-04-13T04:49:07.070Z,26.30
2019-04-13T04:50:06.969Z,26.90
2019-04-13T04:51:11.296Z,27.00
2019-04-13T04:52:06.764Z,26.70
2019-04-13T04:53:06.658Z,26.70
2019-04-13T04:54:06.555Z,27.20
2019-04-13T04:55:06.615Z,27.20
2019-04-13T04:56:06.358Z,27.40
2019-04-13T04:57:06.261Z,26.40
2019-04-13T04:58:06.147Z,27.10
2019-04-13T04:59:06.056Z,26.90
2019-04-13T05:00:05.965Z,26.80
2019-04-13T05:01:05.837Z,26.70
2019-04-13T05:02:05.848Z,27.40
2019-04-13T05:03:05.628Z,27.40
2019-04-13T05:04:05.529Z,26.60
2019-04-13T05:05:05.423Z,27.40
2019-04-13T05:06:05.328Z,26.90
2019-04-13T05:07:05.234Z,26.80
2019-04-13T05:08:10.898Z,26.60
2019-04-13T05:09:05.067Z,27.40
2019-04-13T05:10:04.922Z,26.50
2019-04-13T05:11:04.808Z,27.10
2019-04-13T05:12:04.723Z,26.90
2019-04-13T05:13:04.605Z,27.10
2019-04-13T05:14:04.500Z,27.20
2019-04-13T05:15:04.395Z,27.00
2019-04-13T05:16:04.311Z,26.80
2019-04-13T05:17:04.207Z,26.80
2019-04-13T05:18:04.093Z,26.80
2019-04-13T05:19:03.989Z,26.90
2019-04-13T05:20:03.884Z,27.00
2019-04-13T05:21:03.783Z,26.70
2019-04-13T05:22:03.708Z,27.20
2019-04-13T05:23:03.577Z,27.60
2019-04-13T05:24:03.474Z,28.10
2019-04-13T05:25:03.370Z,27.60
2019-04-13T05:26:03.270Z,28.70
2019-04-13T05:27:03.189Z,29.10
2019-04-13T05:28:03.071Z,28.90
2019-04-13T05:29:02.963Z,30.20
2019-04-13T05:30:02.862Z,30.10
2019-04-13T05:31:02.762Z,29.30
2019-04-13T05:32:02.670Z,28.60
2019-04-13T05:33:02.553Z,28.50
2019-04-13T05:34:02.449Z,27.10
2019-04-13T05:35:02.352Z,28.10
2019-04-13T05:36:02.247Z,27.10
2019-04-13T05:37:02.158Z,27.20
2019-04-13T05:38:02.042Z,27.70
2019-04-13T05:39:01.941Z,28.80
2019-04-13T05:40:01.841Z,28.70
2019-04-13T05:41:01.733Z,28.70
2019-04-13T05:42:01.646Z,28.90
2019-04-13T05:43:01.533Z,28.40
2019-04-13T05:44:01.431Z,28.30
2019-04-13T05:45:01.326Z,28.20
2019-04-13T05:46:01.224Z,28.30
2019-04-13T05:47:01.135Z,29.00
2019-04-13T05:48:01.020Z,28.80
2019-04-13T05:49:00.915Z,29.10
2019-04-13T05:50:00.818Z,29.40
2019-04-13T05:51:00.715Z,30.00
2019-04-13T05:52:02.079Z,29.00
2019-04-13T05:53:00.508Z,30.10
2019-04-13T05:54:00.404Z,31.10
2019-04-13T05:55:00.305Z,29.60
2019-04-13T05:56:00.213Z,30.60
2019-04-13T05:57:00.113Z,31.10
2019-04-13T05:58:00.102Z,31.90
2019-04-13T05:59:03.410Z,30.90
2019-04-13T05:59:59.850Z,31.20
2019-04-13T06:00:59.688Z,31.10
2019-04-13T06:01:59.604Z,31.10
2019-04-13T06:02:59.491Z,30.20
2019-04-13T06:03:59.508Z,29.20
2019-04-13T06:04:59.287Z,28.20
2019-04-13T06:05:59.180Z,28.00
2019-04-13T06:07:00.257Z,28.10
2019-04-13T06:07:58.980Z,28.60
2019-04-13T06:08:58.872Z,28.80
2019-04-13T06:09:58.770Z,27.30
2019-04-13T06:10:58.670Z,28.00
2019-04-13T06:11:58.583Z,26.30
2019-04-13T06:12:58.467Z,27.20
2019-04-13T06:14:01.923Z,27.10
2019-04-13T06:14:59.621Z,27.20
2019-04-13T06:15:58.159Z,28.20
2019-04-13T06:16:58.071Z,28.80
2019-04-13T06:17:58.072Z,28.00
2019-04-13T06:18:57.855Z,29.10
2019-04-13T06:19:57.767Z,28.00
2019-04-13T06:20:57.656Z,29.30
2019-04-13T06:21:57.568Z,28.90
2019-04-13T06:22:57.446Z,27.50
2019-04-13T06:23:57.352Z,27.80
2019-04-13T06:24:57.347Z,29.30
2019-04-13T06:26:03.651Z,28.30
2019-04-13T06:26:57.060Z,28.90
2019-04-13T06:27:56.941Z,27.90
2019-04-13T06:28:56.834Z,27.90
2019-04-13T06:30:00.640Z,28.20
2019-04-13T06:30:56.759Z,27.30
2019-04-13T06:31:56.546Z,28.10
2019-04-13T06:32:56.429Z,27.20
2019-04-13T06:33:56.378Z,28.10
2019-04-13T06:34:56.225Z,27.90
2019-04-13T06:35:56.128Z,27.20
2019-04-13T06:36:56.038Z,27.80
2019-04-13T06:37:55.925Z,28.50
2019-04-13T06:38:59.469Z,28.90
2019-04-13T06:39:55.718Z,28.10
2019-04-13T06:40:55.621Z,28.90
2019-04-13T06:41:55.518Z,36.30
2019-04-13T06:42:55.436Z,45.60
2019-04-13T06:43:55.324Z,51.10
2019-04-13T06:44:55.212Z,48.00
2019-04-13T06:45:55.111Z,37.10
2019-04-13T06:46:55.015Z,31.00
2019-04-13T06:47:54.928Z,29.60
2019-04-13T06:48:54.809Z,30.80
2019-04-13T06:49:54.706Z,31.10
2019-04-13T06:50:54.607Z,29.60
2019-04-13T06:51:54.507Z,28.20
2019-04-13T06:52:54.420Z,28.00
2019-04-13T06:53:54.303Z,29.50
2019-04-13T06:54:54.201Z,28.00
2019-04-13T06:55:54.103Z,27.70
2019-04-13T06:56:54.010Z,27.80
2019-04-13T06:57:53.920Z,28.00
2019-04-13T06:58:55.977Z,26.10
2019-04-13T06:59:53.701Z,25.50
2019-04-13T07:00:53.597Z,26.80
2019-04-13T07:01:53.500Z,26.30
2019-04-13T07:02:53.412Z,25.80
2019-04-13T07:03:54.436Z,25.90
2019-04-13T07:04:53.194Z,26.30
2019-04-13T07:05:53.093Z,26.00
2019-04-13T07:06:52.999Z,25.60
2019-04-13T07:07:52.912Z,26.40
2019-04-13T07:08:52.791Z,26.60
2019-04-13T07:09:52.693Z,29.30
2019-04-13T07:10:52.592Z,30.00
2019-04-13T07:11:55.973Z,28.50
2019-04-13T07:12:52.404Z,28.10
2019-04-13T07:13:52.292Z,28.90
2019-04-13T07:14:53.505Z,28.80
2019-04-13T07:15:52.090Z,28.80
2019-04-13T07:16:52.049Z,28.50
2019-04-13T07:17:51.903Z,28.00
2019-04-13T07:18:51.786Z,29.40
2019-04-13T07:19:51.799Z,29.10
2019-04-13T07:20:52.204Z,30.10
2019-04-13T07:21:51.709Z,28.40
2019-04-13T07:22:53.764Z,27.80
2019-04-13T07:23:51.285Z,28.80
2019-04-13T07:24:51.186Z,27.60
2019-04-13T07:25:51.089Z,28.10
2019-04-13T07:26:51.093Z,28.00
2019-04-13T07:27:50.904Z,28.40
2019-04-13T07:28:50.785Z,27.10
2019-04-13T07:29:53.175Z,27.30
2019-04-13T07:30:50.601Z,27.60
2019-04-13T07:31:50.491Z,28.10
2019-04-13T07:32:50.410Z,28.10
2019-04-13T07:33:50.412Z,29.80
2019-04-13T07:34:50.185Z,28.90
2019-04-13T07:35:50.087Z,27.40
2019-04-13T07:36:50.648Z,27.60
2019-04-13T07:37:49.901Z,27.30
2019-04-13T07:38:49.785Z,28.10
2019-04-13T07:39:49.688Z,27.60
2019-04-13T07:40:51.467Z,27.60
2019-04-13T07:41:49.486Z,28.10
2019-04-13T07:42:49.402Z,27.70
2019-04-13T07:43:49.296Z,26.40
2019-04-13T07:44:49.186Z,26.10
2019-04-13T07:45:50.706Z,26.80
2019-04-13T07:46:48.988Z,26.20
2019-04-13T07:47:49.009Z,26.90
2019-04-13T07:48:48.790Z,27.30
2019-04-13T07:49:48.691Z,26.30
2019-04-13T07:50:48.591Z,26.80
2019-04-13T07:51:51.356Z,27.40
2019-04-13T07:52:48.410Z,26.70
2019-04-13T07:53:48.296Z,27.00
2019-04-13T07:54:48.297Z,27.70
2019-04-13T07:55:48.101Z,27.20
2019-04-13T07:56:47.998Z,27.00
2019-04-13T07:57:47.917Z,27.40
2019-04-13T07:58:47.962Z,27.60
2019-04-13T07:59:48.102Z,27.00
2019-04-13T08:00:47.644Z,26.90
2019-04-13T08:01:56.725Z,27.70
2019-04-13T08:02:47.420Z,27.80
2019-04-13T08:03:47.311Z,27.90
2019-04-13T08:04:47.204Z,27.40
2019-04-13T08:05:47.106Z,28.20
2019-04-13T08:06:47.012Z,28.30
2019-04-13T08:07:50.002Z,27.30
2019-04-13T08:11:49.618Z,28.60
2019-04-13T08:12:49.548Z,28.60
2019-04-13T08:13:49.404Z,29.80
2019-04-13T08:14:49.307Z,28.40
2019-04-13T08:15:49.469Z,27.80
2019-04-13T08:16:49.110Z,28.20
2019-04-13T08:17:49.029Z,28.20
2019-04-13T08:18:48.912Z,27.80
2019-04-13T08:19:48.821Z,28.10
2019-04-13T08:20:48.714Z,28.00
2019-04-13T08:21:48.619Z,28.90
2019-04-13T08:22:48.630Z,28.40
2019-04-13T08:23:48.420Z,29.30
2019-04-13T08:24:49.089Z,28.30
2019-04-13T08:25:48.224Z,28.50
2019-04-13T08:26:48.933Z,29.50
2019-04-13T08:27:48.042Z,28.60
2019-04-13T08:28:47.928Z,28.90
2019-04-13T08:29:47.930Z,28.50
2019-04-13T08:30:49.513Z,28.80
2019-04-13T08:31:47.637Z,29.50
2019-04-13T08:32:47.536Z,29.20
2019-04-13T08:33:47.452Z,29.10
2019-04-13T08:34:47.336Z,29.70
2019-04-13T08:35:47.240Z,28.70
2019-04-13T08:36:47.246Z,28.20
2019-04-13T08:37:55.331Z,26.10
2019-04-13T08:38:58.028Z,25.60
2019-04-13T08:40:01.379Z,24.30
2019-04-13T08:40:47.300Z,26.20
2019-04-13T08:41:46.650Z,26.40
2019-04-13T08:42:46.553Z,26.00
2019-04-13T08:43:46.575Z,25.80
2019-04-13T08:44:46.358Z,25.70
2019-04-13T08:45:46.257Z,25.20
2019-04-13T08:46:46.158Z,24.50
2019-04-13T08:47:46.062Z,24.50
2019-04-13T08:48:45.977Z,25.30
2019-04-13T08:49:45.969Z,25.60
2019-04-13T08:50:45.763Z,23.90
2019-04-13T08:51:45.748Z,24.90
2019-04-13T08:52:48.229Z,23.00
2019-04-13T08:53:45.486Z,21.70
2019-04-13T08:54:45.372Z,22.60
2019-04-13T08:55:45.274Z,21.30
2019-04-13T08:56:45.178Z,21.50
2019-04-13T08:57:45.078Z,21.50
2019-04-13T08:58:44.997Z,22.00
2019-04-13T08:59:44.883Z,21.80
2019-04-13T09:00:44.786Z,21.10
2019-04-13T09:01:44.692Z,21.40
2019-04-13T09:02:44.594Z,20.50
2019-04-13T09:03:44.623Z,20.60
2019-04-13T09:04:44.400Z,20.40
2019-04-13T09:05:44.297Z,18.90
2019-04-13T09:06:44.199Z,20.00
2019-04-13T09:07:44.103Z,21.00
2019-04-13T09:08:44.024Z,19.40
2019-04-13T09:09:48.355Z,19.50
2019-04-13T09:10:43.937Z,19.30
2019-04-13T09:11:43.910Z,18.70
2019-04-13T09:12:43.623Z,19.50
2019-04-13T09:13:44.199Z,18.70
2019-04-13T09:14:43.448Z,18.30
2019-04-13T09:15:46.481Z,18.50
2019-04-13T09:16:43.366Z,18.80
2019-04-13T09:17:43.146Z,18.60
2019-04-13T09:18:44.130Z,18.50
2019-04-13T09:19:44.653Z,18.60
2019-04-13T09:20:42.863Z,18.40
2019-04-13T09:21:47.684Z,18.10
2019-04-13T09:22:42.676Z,19.00
2019-04-13T09:23:46.163Z,19.40
2019-04-13T09:24:42.555Z,19.20
2019-04-13T09:25:42.393Z,19.00
2019-04-13T09:26:42.300Z,20.00
2019-04-13T09:27:42.205Z,20.00
2019-04-13T09:28:43.337Z,20.00
2019-04-13T09:29:42.017Z,20.50
2019-04-13T09:30:41.922Z,20.30
2019-04-13T09:31:41.830Z,19.50
2019-04-13T09:32:41.732Z,18.30
2019-04-13T09:33:44.076Z,19.40
2019-04-13T09:34:41.545Z,18.80
2019-04-13T09:35:41.451Z,18.50
2019-04-13T09:36:41.356Z,17.80
2019-04-13T09:37:41.371Z,16.30
2019-04-13T09:38:42.722Z,16.70
2019-04-13T09:39:41.101Z,17.00
2019-04-13T09:40:40.985Z,16.70
2019-04-13T09:41:40.902Z,16.20
2019-04-13T09:42:40.798Z,17.80
2019-04-13T09:43:40.717Z,16.50
2019-04-13T09:44:40.722Z,16.70
2019-04-13T09:45:40.517Z,17.00
2019-04-13T09:46:40.425Z,17.10
2019-04-13T09:47:42.320Z,16.30
2019-04-13T09:48:40.261Z,16.70
2019-04-13T09:49:40.150Z,16.80
2019-04-13T09:50:40.061Z,16.90
2019-04-13T09:51:40.104Z,16.20
2019-04-13T09:52:39.877Z,16.40
2019-04-13T09:53:39.801Z,16.00
2019-04-13T09:54:40.746Z,17.00
2019-04-13T09:55:39.604Z,17.30
2019-04-13T09:56:39.513Z,16.30
2019-04-13T09:57:39.425Z,16.40
2019-04-13T09:58:39.453Z,16.90
2019-04-13T09:59:39.240Z,16.50
2019-04-13T10:00:39.150Z,17.10
2019-04-13T10:01:39.061Z,17.10
2019-04-13T10:02:38.969Z,16.60
2019-04-13T10:03:40.053Z,15.90
2019-04-13T10:04:38.800Z,16.20
2019-04-13T10:05:38.795Z,16.50
2019-04-13T10:06:39.774Z,16.30
2019-04-13T10:07:41.278Z,16.00
2019-04-13T10:08:38.432Z,15.80
2019-04-13T10:09:39.651Z,16.50
2019-04-13T10:10:38.232Z,17.70
2019-04-13T10:11:38.214Z,16.40
2019-04-13T10:12:38.047Z,16.50
2019-04-13T10:13:37.958Z,16.50
2019-04-13T10:14:37.881Z,16.60
2019-04-13T10:15:37.772Z,17.30
2019-04-13T10:16:37.680Z,17.20
2019-04-13T10:17:37.587Z,16.30
2019-04-13T10:18:37.494Z,16.10
2019-04-13T10:19:39.889Z,16.00
2019-04-13T10:20:39.226Z,15.70
2019-04-13T10:21:37.218Z,15.50
2019-04-13T10:22:37.123Z,15.90
2019-04-13T10:23:37.034Z,16.50
2019-04-13T10:24:36.959Z,15.70
2019-04-13T10:25:38.435Z,15.70
2019-04-13T10:26:36.753Z,16.10
2019-04-13T10:27:36.661Z,15.60
2019-04-13T10:28:36.569Z,16.20
2019-04-13T10:29:36.491Z,15.80
2019-04-13T10:30:36.383Z,15.30
2019-04-13T10:31:36.290Z,15.90
2019-04-13T10:32:36.199Z,16.20
2019-04-13T10:33:36.108Z,16.20
2019-04-13T10:34:36.031Z,16.30
2019-04-13T10:35:35.926Z,16.10
2019-04-13T10:36:35.828Z,15.90
2019-04-13T10:37:35.737Z,15.80
2019-04-13T10:38:35.643Z,16.10
2019-04-13T10:39:35.566Z,15.50
2019-04-13T10:40:35.453Z,16.20
2019-04-13T10:41:35.362Z,17.40
2019-04-13T10:42:35.270Z,16.00
2019-04-13T10:43:35.178Z,16.60
2019-04-13T10:44:35.101Z,16.30
2019-04-13T10:45:34.987Z,16.10
2019-04-13T10:46:34.893Z,14.60
2019-04-13T10:47:34.802Z,15.50
2019-04-13T10:48:34.708Z,15.40
2019-04-13T10:49:35.204Z,14.80
2019-04-13T10:50:34.518Z,15.50
2019-04-13T10:51:34.423Z,15.60
2019-04-13T10:52:34.332Z,15.40
2019-04-13T10:53:34.240Z,15.60
2019-04-13T10:54:34.163Z,15.40
2019-04-13T10:55:34.044Z,16.20
2019-04-13T10:56:33.954Z,16.60
2019-04-13T10:57:33.857Z,16.40
2019-04-13T10:58:33.781Z,16.50
2019-04-13T10:59:33.686Z,16.90
2019-04-13T11:00:33.671Z,17.50
2019-04-13T11:01:33.534Z,18.50
2019-04-13T11:02:33.379Z,18.20
2019-04-13T11:03:33.284Z,17.40
2019-04-13T11:04:33.198Z,17.70
2019-04-13T11:05:33.117Z,18.10
2019-04-13T11:06:33.003Z,17.30
2019-04-13T11:07:34.888Z,18.20
2019-04-13T11:08:32.817Z,17.60
2019-04-13T11:09:32.714Z,18.10
2019-04-13T11:10:34.896Z,17.00
2019-04-13T11:11:32.519Z,16.60
2019-04-13T11:12:32.423Z,16.70
2019-04-13T11:13:32.328Z,16.30
2019-04-13T11:14:32.233Z,16.80
2019-04-13T11:15:32.254Z,16.60
2019-04-13T11:16:32.039Z,15.60
2019-04-13T11:17:31.945Z,16.60
2019-04-13T11:18:31.847Z,16.90
2019-04-13T11:19:31.750Z,16.50
2019-04-13T11:20:31.671Z,16.00
2019-04-13T11:21:31.560Z,16.00
2019-04-13T11:22:31.569Z,16.40
2019-04-13T11:23:36.368Z,17.50
2019-04-13T11:24:31.270Z,17.00
2019-04-13T11:25:31.239Z,16.60
2019-04-13T11:26:31.078Z,17.20
2019-04-13T11:27:30.982Z,16.20
2019-04-13T11:28:30.888Z,16.30
2019-04-13T11:29:30.893Z,16.20
2019-04-13T11:30:31.129Z,18.40
2019-04-13T11:31:30.615Z,18.70
2019-04-13T11:32:31.637Z,18.20
2019-04-13T11:33:30.408Z,17.50
2019-04-13T11:34:30.323Z,17.00
2019-04-13T11:35:30.217Z,16.90
2019-04-13T11:36:30.238Z,16.90
2019-04-13T11:37:32.477Z,16.90
2019-04-13T11:38:29.927Z,16.60
2019-04-13T11:39:34.115Z,16.80
2019-04-13T11:40:29.735Z,15.70
2019-04-13T11:41:29.662Z,15.30
2019-04-13T11:42:29.544Z,16.90
2019-04-13T11:43:29.573Z,16.50
2019-04-13T11:44:29.359Z,16.30
2019-04-13T11:45:29.258Z,16.30
2019-04-13T11:46:29.911Z,15.90
2019-04-13T11:47:29.068Z,16.20
2019-04-13T11:48:28.972Z,16.10
2019-04-13T11:49:28.881Z,15.60
2019-04-13T11:50:29.763Z,15.80
2019-04-13T11:51:31.826Z,15.90
2019-04-13T11:52:28.596Z,16.20
2019-04-13T11:53:28.525Z,16.40
2019-04-13T11:54:28.426Z,16.30
2019-04-13T11:55:28.690Z,16.20
2019-04-13T11:56:28.984Z,16.50
2019-04-13T11:57:28.230Z,16.80
2019-04-13T11:58:28.030Z,16.70
2019-04-13T11:59:27.937Z,17.40
2019-04-13T12:00:27.841Z,17.20
2019-04-13T12:01:27.764Z,17.50
2019-04-13T12:02:27.651Z,18.30
2019-04-13T12:03:27.558Z,20.60
2019-04-13T12:04:29.577Z,21.90
2019-04-13T12:05:29.062Z,21.00
2019-04-13T12:06:27.291Z,20.00
2019-04-13T12:07:27.178Z,21.40
2019-04-13T12:08:28.496Z,20.40
2019-04-13T12:09:29.014Z,21.30
2019-04-13T12:10:26.891Z,19.00
2019-04-13T12:11:26.901Z,18.30
2019-04-13T12:12:26.719Z,18.80
2019-04-13T12:13:26.606Z,18.60
2019-04-13T12:14:26.509Z,19.10
2019-04-13T12:15:26.413Z,18.60
2019-04-13T12:16:26.320Z,17.60
2019-04-13T12:17:26.339Z,18.30
2019-04-13T12:18:26.125Z,18.80
2019-04-13T12:19:26.028Z,18.00
2019-04-13T12:20:25.933Z,17.80
2019-04-13T12:21:25.837Z,17.80
2019-04-13T12:22:25.759Z,18.00
2019-04-13T12:23:26.319Z,18.60
2019-04-13T12:24:25.550Z,17.50
2019-04-13T12:25:25.452Z,17.50
2019-04-13T12:26:25.358Z,17.40
2019-04-13T12:27:25.276Z,17.50
2019-04-13T12:28:25.161Z,17.80
2019-04-13T12:29:25.073Z,17.50
2019-04-13T12:30:24.968Z,17.90
2019-04-13T12:31:24.874Z,17.20
2019-04-13T12:32:24.795Z,17.40
2019-04-13T12:33:24.684Z,17.60
2019-04-13T12:34:24.591Z,18.30
2019-04-13T12:35:24.493Z,17.50
2019-04-13T12:36:25.025Z,17.80
2019-04-13T12:37:24.319Z,16.90
2019-04-13T12:38:24.208Z,17.40
2019-04-13T12:39:24.113Z,17.70
2019-04-13T12:40:24.018Z,17.10
2019-04-13T12:41:23.923Z,16.30
2019-04-13T12:42:23.844Z,16.00
2019-04-13T12:43:23.735Z,16.40
2019-04-13T12:44:36.263Z,17.10
2019-04-13T12:45:23.549Z,17.90
2019-04-13T12:46:23.454Z,17.30
2019-04-13T12:47:23.378Z,18.00
2019-04-13T12:48:23.265Z,17.00
2019-04-13T12:49:23.170Z,16.80
2019-04-13T12:50:23.077Z,16.20
2019-04-13T12:51:22.982Z,16.90
2019-04-13T12:52:22.907Z,16.80
2019-04-13T12:53:22.799Z,18.40
2019-04-13T12:54:22.706Z,17.60